Calingasta, Argentina
Current Conditions -  °F | °C
As of 11:00 PM on Sunday 23 Nov 2014 (Local Time) from SAME Reporting Station
Thunderstorm Thunderstorm  
Wind Chill: 82°   Ceiling: Unl
Heat Index: 82°   Visibility: 6mi
Dew Point: 52°   Wind: 2mph
Humidity: 35%   Direction: 360°N
Pressure: 29.59"   Gusts: NA
Location:  31.32°S, 69.42°W
Report Text: SAME 240200Z 36002KT 9999 VCTS FEW045CB28/11 Q1002
Loading
Personal Weather Stations






























Interactive Weather Map New forecast layout! Learn more

10-Day Weather Forecast

Advertisements
Track Severe Weather on mobile